Time;durP1;ratioP1;P1;durP2;ratioP2;P2;SDS_P1;SDS_P2;PMS_P1;PMS_P2;Temp;Humidity;BMP_temperature;BMP_pressure;BME280_temperature;BME280_humidity;BME280_pressure;Samples;Min_cycle;Max_cycle;Signal;HPM_P1;HPM_P2
2024/01/30 00:01:53;;;;;;;5.77;2.60;;;;;;;4.33;50.57;101160.94;4936759;29;20182;-85
2024/01/30 00:04:20;;;;;;;5.73;2.50;;;;;;;4.33;50.27;101158.34;4936836;29;20642;-84
2024/01/30 00:06:46;;;;;;;6.77;2.83;;;;;;;4.33;50.35;101162.66;4920349;29;20181;-85
2024/01/30 00:09:11;;;;;;;6.90;2.90;;;;;;;4.37;50.70;101163.53;4936929;29;20252;-84
2024/01/30 00:11:37;;;;;;;7.80;2.83;;;;;;;4.43;50.20;101159.22;4936833;29;20182;-84
2024/01/30 00:14:04;;;;;;;6.07;2.20;;;;;;;4.45;50.31;101159.25;4936706;29;20196;-84
2024/01/30 00:16:31;;;;;;;5.73;2.53;;;;;;;4.44;50.20;101166.16;4937000;29;20179;-84
2024/01/30 00:18:56;;;;;;;5.20;2.50;;;;;;;4.38;50.25;101160.94;4919761;29;20187;-84
2024/01/30 00:21:23;;;;;;;4.37;2.17;;;;;;;4.39;50.08;101159.22;4936729;29;20544;-84
2024/01/30 00:23:49;;;;;;;5.60;2.50;;;;;;;4.36;49.74;101154.88;4936563;29;20659;-84
2024/01/30 00:26:15;;;;;;;4.73;2.10;;;;;;;4.41;49.89;101157.50;4933688;29;20253;-85
2024/01/30 00:28:42;;;;;;;5.60;2.50;;;;;;;4.46;50.03;101153.19;4901173;29;20267;-84
2024/01/30 00:31:07;;;;;;;4.80;2.27;;;;;;;4.45;49.79;101157.53;4917527;29;20206;-84
2024/01/30 00:33:33;;;;;;;5.10;2.07;;;;;;;4.38;49.73;101158.34;4928367;29;20220;-84
2024/01/30 00:35:58;;;;;;;4.00;2.00;;;;;;;4.29;49.89;101163.50;4936088;29;20186;-84
2024/01/30 00:38:24;;;;;;;4.87;2.10;;;;;;;4.29;49.84;101159.19;4919619;29;20194;-84
2024/01/30 00:40:51;;;;;;;5.83;2.27;;;;;;;4.23;49.54;101153.97;4936491;29;20204;-84
2024/01/30 00:43:16;;;;;;;5.27;2.63;;;;;;;4.22;49.75;101154.81;4936131;29;20252;-85
2024/01/30 00:45:44;;;;;;;4.00;1.73;;;;;;;4.27;49.54;101160.88;4919427;29;20194;-85
2024/01/30 00:48:09;;;;;;;5.60;2.30;;;;;;;4.22;49.78;101161.72;4944956;29;20189;-85
2024/01/30 00:50:35;;;;;;;5.07;1.77;;;;;;;4.21;49.60;101160.00;4955505;28;20535;-85
2024/01/30 00:53:01;;;;;;;7.93;2.47;;;;;;;4.12;50.11;101160.81;4955531;28;20169;-85
2024/01/30 00:55:27;;;;;;;5.17;2.27;;;;;;;4.06;50.39;101157.31;4941819;29;20272;-85
2024/01/30 00:57:52;;;;;;;5.77;2.07;;;;;;;4.15;50.19;101155.66;4936259;29;20679;-85
2024/01/30 01:00:18;;;;;;;4.23;2.47;;;;;;;4.29;49.86;101160.91;4936094;29;20181;-85
2024/01/30 01:02:44;;;;;;;6.07;2.27;;;;;;;4.37;49.81;101167.00;4935835;29;20214;-85
2024/01/30 01:05:11;;;;;;;4.03;1.80;;;;;;;4.38;49.67;101163.53;4919091;29;20203;-85
2024/01/30 01:07:38;;;;;;;8.63;2.73;;;;;;;4.43;49.37;101166.19;4935919;29;20178;-85
2024/01/30 01:10:03;;;;;;;5.33;2.50;;;;;;;4.45;49.81;101164.44;4935899;29;20190;-85
2024/01/30 01:12:29;;;;;;;5.03;2.37;;;;;;;4.44;49.72;101155.78;4919368;29;20509;-85
2024/01/30 01:14:55;;;;;;;7.23;2.10;;;;;;;4.41;49.73;101154.91;4907750;29;20213;-85
2024/01/30 01:17:22;;;;;;;4.57;2.13;;;;;;;4.31;49.77;101154.88;4900221;29;20594;-85
2024/01/30 01:19:48;;;;;;;6.77;2.53;;;;;;;4.31;49.81;101157.47;4925373;29;20249;-85
2024/01/30 01:22:17;;;;;;;4.47;1.90;;;;;;;4.33;49.99;101153.13;4919088;29;20213;-85
2024/01/30 01:24:43;;;;;;;5.07;2.03;;;;;;;4.32;50.06;101154.00;4935883;29;20178;-85
2024/01/30 01:27:09;;;;;;;7.20;2.50;;;;;;;4.23;50.75;101143.56;4935982;29;20246;-85
2024/01/30 01:29:36;;;;;;;3.77;1.80;;;;;;;4.20;50.31;101148.75;4935620;29;20190;-85
2024/01/30 01:32:01;;;;;;;5.07;2.30;;;;;;;4.09;50.77;101150.41;4935740;29;20252;-85
2024/01/30 01:34:28;;;;;;;4.20;1.90;;;;;;;4.19;50.25;101149.59;4935607;29;20285;-85
2024/01/30 01:36:55;;;;;;;3.67;1.50;;;;;;;4.13;50.16;101139.19;4950544;28;20196;-85
2024/01/30 01:39:25;;;;;;;3.30;1.77;;;;;;;4.10;50.40;101144.38;4935855;29;20181;-85
2024/01/30 01:41:52;;;;;;;4.57;1.60;;;;;;;4.18;50.04;101145.28;4935840;29;20186;-85
2024/01/30 01:44:18;;;;;;;4.13;1.53;;;;;;;4.18;50.35;101145.28;4935557;29;20206;-85
2024/01/30 01:46:44;;;;;;;4.77;1.93;;;;;;;4.17;50.24;101140.94;4935284;29;20330;-85
2024/01/30 01:49:10;;;;;;;5.60;2.60;;;;;;;4.28;50.65;101144.47;4939431;29;20182;-85
2024/01/30 01:51:36;;;;;;;4.20;2.17;;;;;;;4.31;50.11;101144.47;4939016;29;20197;-85
2024/01/30 01:54:05;;;;;;;5.70;2.37;;;;;;;4.38;50.08;101144.53;4939827;29;20186;-85
2024/01/30 01:56:33;;;;;;;3.77;2.13;;;;;;;4.32;49.95;101137.56;4939177;29;20193;-85
2024/01/30 01:59:04;;;;;;;4.17;2.10;;;;;;;4.24;49.57;101140.13;4939251;29;20613;-85
2024/01/30 02:01:32;;;;;;;4.57;2.23;;;;;;;4.24;50.15;101140.13;4939254;29;20169;-85
2024/01/30 02:03:58;;;;;;;10.73;2.60;;;;;;;4.39;49.80;101141.91;4938932;29;20250;-85
2024/01/30 02:06:24;;;;;;;4.70;2.47;;;;;;;4.44;49.39;101145.41;4939123;29;20193;-85
2024/01/30 02:08:51;;;;;;;4.30;1.80;;;;;;;4.45;49.53;101138.47;4939111;29;20182;-85
2024/01/30 02:11:16;;;;;;;4.37;2.40;;;;;;;4.34;49.80;101136.72;4922136;29;20248;-85
2024/01/30 02:13:43;;;;;;;6.50;1.73;;;;;;;4.32;49.44;101137.56;4938956;29;20272;-85
2024/01/30 02:16:08;;;;;;;3.53;2.20;;;;;;;4.42;49.33;101133.28;4938857;29;20196;-85
2024/01/30 02:18:34;;;;;;;3.43;1.77;;;;;;;4.49;48.80;101128.09;4938710;29;20189;-86
2024/01/30 02:21:04;;;;;;;5.63;2.30;;;;;;;4.53;48.86;101131.59;4938918;29;20192;-86
2024/01/30 02:23:32;;;;;;;5.37;2.13;;;;;;;4.57;48.65;101130.72;4939235;29;20189;-85
2024/01/30 02:25:58;;;;;;;7.07;2.57;;;;;;;4.54;48.49;101134.19;4938666;29;20185;-85
2024/01/30 02:28:25;;;;;;;5.97;2.70;;;;;;;4.72;48.11;101136.84;4938744;29;20253;-85
2024/01/30 02:30:51;;;;;;;6.77;2.33;;;;;;;4.77;48.08;101129.09;4938775;29;20182;-85
2024/01/30 02:33:16;;;;;;;8.93;2.87;;;;;;;4.80;47.63;101134.25;4938831;29;20229;-85
2024/01/30 02:35:43;;;;;;;5.80;2.73;;;;;;;4.59;48.29;101127.28;4938913;29;20182;-85
2024/01/30 02:38:10;;;;;;;9.80;4.00;;;;;;;4.59;48.09;101122.06;4938613;29;20196;-85
2024/01/30 02:40:35;;;;;;;4.63;2.40;;;;;;;4.68;47.99;101132.50;4921701;29;20244;-85
2024/01/30 02:43:03;;;;;;;7.47;3.47;;;;;;;4.73;47.72;101125.59;4938607;29;20210;-85
2024/01/30 02:45:28;;;;;;;6.93;2.57;;;;;;;4.73;48.26;101130.78;4938047;29;20218;-86
2024/01/30 02:47:54;;;;;;;5.17;2.40;;;;;;;4.71;47.91;101132.53;4938537;29;20182;-86
2024/01/30 02:50:19;;;;;;;5.87;2.70;;;;;;;4.70;48.56;101129.91;4938280;29;20559;-86
2024/01/30 02:52:45;;;;;;;4.63;1.70;;;;;;;4.81;47.32;101128.22;4938170;29;20645;-85
2024/01/30 02:55:11;;;;;;;6.97;2.20;;;;;;;4.80;47.72;101129.06;4921557;29;20265;-85
2024/01/30 02:57:37;;;;;;;4.57;2.40;;;;;;;4.74;47.33;101127.31;4938386;29;20175;-85
2024/01/30 03:00:03;;;;;;;9.30;2.77;;;;;;;4.76;47.34;101132.53;4921950;29;20196;-86
2024/01/30 03:02:30;;;;;;;5.60;2.53;;;;;;;4.79;46.94;101130.81;4921330;29;20228;-86
2024/01/30 03:04:55;;;;;;;5.87;2.67;;;;;;;4.64;47.63;101135.09;4921339;29;20183;-85
2024/01/30 03:07:21;;;;;;;4.50;2.40;;;;;;;4.60;47.77;101123.81;4921314;29;20185;-85
2024/01/30 03:09:48;;;;;;;5.77;2.57;;;;;;;4.60;47.85;101129.03;4921583;29;20259;-85
2024/01/30 03:12:13;;;;;;;4.57;2.03;;;;;;;4.58;47.86;101135.06;4937962;29;20170;-85
2024/01/30 03:14:39;;;;;;;5.63;1.83;;;;;;;4.54;47.82;101130.72;4937956;29;20525;-85
2024/01/30 03:17:06;;;;;;;5.40;2.30;;;;;;;4.73;47.96;101129.91;4920918;29;20198;-85
2024/01/30 03:19:31;;;;;;;4.00;2.17;;;;;;;4.69;48.00;101123.84;4921106;29;20182;-85
2024/01/30 03:21:57;;;;;;;4.80;1.93;;;;;;;4.68;47.52;101122.13;4937751;29;20256;-85
2024/01/30 03:24:22;;;;;;;6.47;2.77;;;;;;;4.63;47.85;101118.66;4921005;29;20599;-85
2024/01/30 03:26:47;;;;;;;6.87;2.80;;;;;;;4.54;47.67;101123.78;4920954;29;20186;-85
2024/01/30 03:29:14;;;;;;;5.07;2.57;;;;;;;4.75;47.82;101125.59;4952597;28;20185;-85
2024/01/30 03:31:40;;;;;;;4.83;2.30;;;;;;;4.76;47.06;101120.41;4937811;29;20247;-85
2024/01/30 03:34:05;;;;;;;4.43;2.53;;;;;;;4.71;47.16;101123.84;4920919;29;20663;-85
2024/01/30 03:36:32;;;;;;;4.60;2.10;;;;;;;4.79;46.93;101119.56;4937809;29;20177;-86
2024/01/30 03:38:58;;;;;;;5.33;2.40;;;;;;;4.81;47.17;101123.00;4920891;29;20614;-85
2024/01/30 03:41:24;;;;;;;6.70;3.27;;;;;;;4.83;47.06;101122.16;4920950;29;20641;-86
2024/01/30 03:43:50;;;;;;;6.10;2.63;;;;;;;4.88;46.93;101116.97;4920750;29;20217;-86
2024/01/30 03:46:15;;;;;;;8.33;2.37;;;;;;;4.68;47.54;101118.66;4917078;29;20295;-86
2024/01/30 03:48:41;;;;;;;6.03;2.37;;;;;;;4.63;47.54;101113.44;4917311;29;20184;-85
2024/01/30 03:51:06;;;;;;;6.23;2.40;;;;;;;4.79;46.89;101116.94;4949385;28;20198;-85
2024/01/30 03:53:32;;;;;;;5.37;3.63;;;;;;;4.86;47.14;101110.91;4917583;29;20258;-85
2024/01/30 03:55:57;;;;;;;5.50;2.33;;;;;;;4.76;47.04;101111.75;4918218;29;20186;-86
2024/01/30 03:58:23;;;;;;;5.00;2.30;;;;;;;4.68;47.22;101106.53;4918181;29;20178;-86
2024/01/30 04:00:49;;;;;;;5.50;2.63;;;;;;;4.75;46.88;101110.88;4918133;29;20515;-85
2024/01/30 04:03:18;;;;;;;4.20;2.30;;;;;;;4.76;46.91;101103.94;4918414;29;20688;-85
2024/01/30 04:05:45;;;;;;;5.77;2.37;;;;;;;4.67;47.22;101112.59;4916985;29;20189;-85
2024/01/30 04:08:10;;;;;;;5.43;2.53;;;;;;;4.73;47.29;101110.00;4916979;29;20248;-85
2024/01/30 04:10:36;;;;;;;5.60;2.43;;;;;;;4.72;47.13;101110.88;4898421;29;20176;-87
2024/01/30 04:13:01;;;;;;;6.07;2.50;;;;;;;4.76;47.11;101104.81;4899108;29;20173;-86
2024/01/30 04:15:29;;;;;;;5.03;2.23;;;;;;;4.70;47.95;101111.72;4916996;29;20179;-85
2024/01/30 04:17:58;;;;;;;4.93;2.03;;;;;;;4.77;47.33;101100.50;4917817;29;20215;-86
2024/01/30 04:20:24;;;;;;;5.50;2.57;;;;;;;4.67;47.73;101098.72;4917659;29;20274;-85
2024/01/30 04:22:49;;;;;;;4.53;2.60;;;;;;;4.57;47.99;101099.56;4917757;29;20264;-86
2024/01/30 04:25:15;;;;;;;5.10;2.50;;;;;;;4.45;48.41;101107.31;4917495;29;20194;-86
2024/01/30 04:27:41;;;;;;;5.50;2.83;;;;;;;4.58;47.81;101111.69;4916727;29;20182;-85
2024/01/30 04:30:08;;;;;;;4.50;2.30;;;;;;;4.76;47.91;101114.34;4917982;29;20336;-85
2024/01/30 04:32:36;;;;;;;5.03;2.53;;;;;;;4.88;47.63;101114.34;4917398;29;20645;-85
2024/01/30 04:35:02;;;;;;;6.00;2.57;;;;;;;4.88;47.83;101114.34;4917748;29;20178;-86
2024/01/30 04:37:28;;;;;;;4.57;2.50;;;;;;;4.92;47.86;101106.59;4916818;29;20192;-86
2024/01/30 04:39:53;;;;;;;9.97;2.57;;;;;;;4.95;47.87;101118.72;4948411;28;20241;-86
2024/01/30 04:42:19;;;;;;;5.10;2.30;;;;;;;4.78;48.09;101117.81;4917550;29;20175;-86
2024/01/30 04:44:46;;;;;;;6.30;2.53;;;;;;;4.67;48.13;101119.50;4948922;28;20198;-86
2024/01/30 04:47:12;;;;;;;6.10;2.37;;;;;;;4.76;48.04;101122.13;4916613;29;20209;-86
2024/01/30 04:49:39;;;;;;;6.07;2.47;;;;;;;4.78;48.09;101118.69;4916160;29;20217;-85
2024/01/30 04:52:05;;;;;;;4.80;2.57;;;;;;;4.71;47.94;101110.88;4948693;28;20609;-87
2024/01/30 04:54:31;;;;;;;4.23;2.57;;;;;;;4.50;48.55;101116.00;4916994;29;20188;-86
2024/01/30 04:56:56;;;;;;;8.97;3.00;;;;;;;4.54;48.52;101117.72;4947921;28;20200;-86
2024/01/30 04:59:23;;;;;;;6.07;2.57;;;;;;;4.45;48.51;101118.59;4916212;29;20261;-85
2024/01/30 05:01:50;;;;;;;5.10;2.37;;;;;;;4.49;48.69;101119.44;4917476;29;20186;-85
2024/01/30 05:04:15;;;;;;;5.33;3.13;;;;;;;4.61;48.47;101124.69;4948575;28;20285;-85
2024/01/30 05:06:43;;;;;;;7.50;2.67;;;;;;;4.59;48.74;101131.59;4916142;29;20656;-85
2024/01/30 05:09:09;;;;;;;7.07;2.40;;;;;;;4.78;48.33;101123.00;4916371;29;20199;-87
2024/01/30 05:11:40;;;;;;;7.60;2.70;;;;;;;4.74;nan;101131.66;4948501;28;20182;-85
2024/01/30 05:14:06;;;;;;;9.37;3.40;;;;;;;4.74;48.38;101136.84;4947857;28;20183;-85
2024/01/30 05:16:33;;;;;;;6.87;3.00;;;;;;;4.69;48.57;101142.00;4916272;29;20190;-85
2024/01/30 05:18:59;;;;;;;7.93;2.97;;;;;;;4.88;48.31;101132.53;4917121;29;20240;-85
2024/01/30 05:21:24;;;;;;;6.07;2.77;;;;;;;4.82;48.42;101137.75;4916067;29;20510;-86
2024/01/30 05:23:50;;;;;;;4.73;2.87;;;;;;;4.76;48.58;101137.72;4947433;28;20196;-86
2024/01/30 05:26:16;;;;;;;6.23;2.77;;;;;;;4.83;48.76;101131.66;4916017;29;20215;-85
2024/01/30 05:28:48;;;;;;;6.33;2.83;;;;;;;4.82;48.64;101135.16;4921400;29;20201;-86
2024/01/30 05:31:14;;;;;;;4.73;2.23;;;;;;;4.81;49.45;101134.28;4917100;29;20496;-86
2024/01/30 05:33:41;;;;;;;6.40;2.87;;;;;;;4.86;48.84;101129.09;4917213;29;20181;-86
2024/01/30 05:36:08;;;;;;;8.50;3.90;;;;;;;4.78;48.59;101128.19;4916801;29;20194;-85
2024/01/30 05:38:34;;;;;;;10.20;2.67;;;;;;;4.72;48.88;101131.66;4947669;28;20560;-86
2024/01/30 05:41:01;;;;;;;10.07;3.30;;;;;;;4.76;48.89;101129.94;4916065;29;20242;-86
2024/01/30 05:43:28;;;;;;;5.50;2.27;;;;;;;4.84;48.78;101139.50;4916838;29;20571;-87
2024/01/30 05:45:54;;;;;;;7.37;2.70;;;;;;;4.77;49.12;101139.47;4915770;29;20191;-85
2024/01/30 05:48:20;;;;;;;6.13;2.27;;;;;;;4.71;49.20;101139.44;4935563;29;20187;-86
2024/01/30 05:50:46;;;;;;;4.80;2.37;;;;;;;4.77;49.04;101144.66;4935725;29;20184;-86
2024/01/30 05:53:12;;;;;;;5.53;1.93;;;;;;;4.79;48.76;101146.41;4918848;29;20189;-86
2024/01/30 05:55:38;;;;;;;5.77;2.37;;;;;;;4.76;48.64;101138.59;4935573;29;20182;-86
2024/01/30 05:58:03;;;;;;;6.87;2.30;;;;;;;4.78;49.04;101138.59;4936016;29;20265;-86
2024/01/30 06:00:30;;;;;;;4.97;2.17;;;;;;;4.60;49.36;101128.16;4919047;29;20174;-86
2024/01/30 06:02:56;;;;;;;9.20;3.20;;;;;;;4.58;49.82;101124.69;4918848;29;20578;-86
2024/01/30 06:05:23;;;;;;;4.83;1.83;;;;;;;4.53;48.78;101129.88;4918983;29;20662;-87
2024/01/30 06:07:50;;;;;;;4.53;2.50;;;;;;;4.45;49.46;101128.97;4918842;29;20184;-86
2024/01/30 06:10:15;;;;;;;9.50;3.27;;;;;;;4.69;48.73;101134.22;4918880;29;20197;-85
2024/01/30 06:12:42;;;;;;;7.60;2.77;;;;;;;4.69;49.19;101130.78;4918690;29;20188;-85
2024/01/30 06:15:08;;;;;;;5.93;2.43;;;;;;;4.59;49.22;101127.28;4935723;29;20273;-86
2024/01/30 06:17:35;;;;;;;4.37;1.87;;;;;;;4.73;48.32;101133.38;4918596;29;20260;-86
2024/01/30 06:20:01;;;;;;;8.70;2.77;;;;;;;4.83;nan;101136.88;4935238;29;20178;-86
2024/01/30 06:22:28;;;;;;;4.50;2.27;;;;;;;4.89;48.46;101140.38;4935656;29;20182;-85
2024/01/30 06:24:55;;;;;;;6.90;2.90;;;;;;;4.90;48.03;101138.66;4918585;29;20252;-86
2024/01/30 06:27:20;;;;;;;6.03;2.90;;;;;;;4.99;47.79;101149.03;4930353;29;20182;-86
2024/01/30 06:29:45;;;;;;;6.20;2.23;;;;;;;4.91;48.29;101148.16;4930709;29;20244;-86
2024/01/30 06:32:11;;;;;;;6.27;2.57;;;;;;;4.95;48.00;101147.31;4935540;29;20186;-86
2024/01/30 06:34:38;;;;;;;5.17;2.83;;;;;;;4.91;48.14;101141.22;4922016;29;20173;-85
2024/01/30 06:37:03;;;;;;;5.37;2.77;;;;;;;4.96;47.42;101143.81;4921933;29;20178;-86
2024/01/30 06:39:29;;;;;;;3.57;2.40;;;;;;;4.90;48.85;101143.84;4938570;29;20185;-86
2024/01/30 06:41:54;;;;;;;5.80;1.80;;;;;;;4.84;48.97;101146.41;4953873;28;20181;-85
2024/01/30 06:44:20;;;;;;;5.90;2.93;;;;;;;4.85;49.50;101142.94;4921582;29;20292;-86
2024/01/30 06:46:45;;;;;;;8.13;2.97;;;;;;;4.81;49.56;101144.69;4921622;29;20211;-86
2024/01/30 06:49:11;;;;;;;5.50;2.17;;;;;;;4.94;48.94;101145.56;4922218;29;20236;-87
2024/01/30 06:51:36;;;;;;;5.90;2.90;;;;;;;5.02;49.07;101141.25;4938451;29;20180;-86
2024/01/30 06:54:01;;;;;;;5.37;2.57;;;;;;;5.06;48.92;101140.38;4921654;29;20252;-86
2024/01/30 06:56:28;;;;;;;4.43;1.83;;;;;;;5.03;49.17;101145.59;4921877;29;20597;-85
2024/01/30 06:58:53;;;;;;;5.20;2.90;;;;;;;4.78;49.75;101143.78;4921842;29;20260;-87
2024/01/30 07:01:18;;;;;;;8.13;3.87;;;;;;;4.70;50.77;101151.56;4921594;29;20620;-86
2024/01/30 07:03:44;;;;;;;5.07;2.70;;;;;;;4.71;50.65;101152.44;4938455;29;20236;-87
2024/01/30 07:06:12;;;;;;;6.50;2.60;;;;;;;4.66;50.76;101143.75;4921446;29;20180;-85
2024/01/30 07:08:40;;;;;;;5.37;2.80;;;;;;;4.75;50.84;101147.25;4921600;29;20240;-85
2024/01/30 07:11:06;;;;;;;8.57;3.43;;;;;;;4.60;51.61;101144.59;4921551;29;20182;-87
2024/01/30 07:13:32;;;;;;;5.07;2.43;;;;;;;4.61;51.18;101141.13;4921512;29;20663;-86
2024/01/30 07:15:57;;;;;;;10.33;3.17;;;;;;;4.69;51.58;101141.19;4921339;29;20272;-85
2024/01/30 07:18:23;;;;;;;6.93;2.60;;;;;;;4.53;50.83;101141.97;4921428;29;20180;-86
2024/01/30 07:20:49;;;;;;;5.67;3.07;;;;;;;4.50;51.01;101140.25;4937752;29;20244;-86
2024/01/30 07:23:17;;;;;;;6.90;2.33;;;;;;;4.54;51.29;101144.56;4937867;29;20224;-86
2024/01/30 07:25:43;;;;;;;8.03;3.70;;;;;;;4.74;51.56;101149.84;4921355;29;20654;-87
2024/01/30 07:28:10;;;;;;;8.23;3.03;;;;;;;5.00;50.99;101148.19;4938164;29;20192;-87
2024/01/30 07:30:36;;;;;;;6.50;2.87;;;;;;;5.01;50.66;101142.09;4937492;29;20241;-87
2024/01/30 07:33:02;;;;;;;7.90;3.37;;;;;;;5.09;50.47;101155.97;4938219;29;20174;-88
2024/01/30 07:35:27;;;;;;;8.33;3.00;;;;;;;4.94;50.94;101153.38;4920711;29;20183;-87
2024/01/30 07:37:53;;;;;;;5.17;2.80;;;;;;;4.61;51.77;101148.91;4937642;29;20174;-87
2024/01/30 07:40:18;;;;;;;6.07;3.13;;;;;;;4.62;52.05;101152.38;4937581;29;20174;-87
2024/01/30 07:42:44;;;;;;;7.97;3.57;;;;;;;4.89;52.03;101155.09;4937356;29;20561;-86
2024/01/30 07:45:09;;;;;;;7.47;3.60;;;;;;;5.08;51.86;101154.28;4936493;28;20658;-86
2024/01/30 07:47:35;;;;;;;7.87;3.67;;;;;;;5.20;51.56;101158.59;4920410;29;20286;-86
2024/01/30 07:50:00;;;;;;;11.17;3.20;;;;;;;5.22;51.02;101160.34;4937128;29;20226;-87
2024/01/30 07:52:26;;;;;;;9.83;4.33;;;;;;;5.22;51.06;101157.72;4937347;29;20188;-87
2024/01/30 07:54:51;;;;;;;6.80;3.53;;;;;;;5.33;51.35;101161.22;4937295;29;20659;-87
2024/01/30 07:57:17;;;;;;;11.67;4.50;;;;;;;5.34;50.55;101157.78;4937492;29;20186;-87
2024/01/30 07:59:45;;;;;;;7.33;3.80;;;;;;;4.84;52.05;101167.19;4937262;29;20170;-87
2024/01/30 08:02:14;;;;;;;7.33;3.70;;;;;;;4.77;52.35;101168.06;4937015;29;20190;-86
2024/01/30 08:04:39;;;;;;;8.20;3.23;;;;;;;4.81;52.61;101169.78;4937124;29;20268;-89
2024/01/30 08:07:05;;;;;;;6.40;3.37;;;;;;;4.84;52.85;101175.88;4936919;29;20543;-87
2024/01/30 08:09:30;;;;;;;6.77;3.03;;;;;;;4.93;52.26;101177.59;4936877;29;20177;-87
2024/01/30 08:11:56;;;;;;;5.50;3.53;;;;;;;4.94;52.60;101171.56;4936791;29;20686;-88
2024/01/30 08:14:22;;;;;;;8.67;3.73;;;;;;;5.09;52.34;101175.91;4920162;29;20179;-88
2024/01/30 08:16:47;;;;;;;9.57;4.00;;;;;;;4.96;52.55;101178.47;4936859;29;20254;-87
2024/01/30 08:19:12;;;;;;;8.37;3.90;;;;;;;5.11;52.41;101180.25;4919946;29;20630;-88
2024/01/30 08:21:38;;;;;;;7.97;3.77;;;;;;;5.22;51.78;101181.13;4936757;29;20178;-87
2024/01/30 08:24:05;;;;;;;8.10;3.77;;;;;;;5.26;52.00;101180.28;4937181;29;20285;-87
2024/01/30 08:26:33;;;;;;;9.97;3.40;;;;;;;5.31;52.33;101183.75;4920280;29;20187;-87
2024/01/30 08:28:59;;;;;;;6.70;3.47;;;;;;;5.39;51.19;101186.38;4936971;29;20196;-87
2024/01/30 08:31:24;;;;;;;11.17;4.17;;;;;;;5.35;51.33;101185.50;4919871;29;20190;-87
2024/01/30 08:33:50;;;;;;;8.73;3.60;;;;;;;5.38;51.33;101189.81;4951509;28;20269;-87
2024/01/30 08:36:16;;;;;;;7.73;4.10;;;;;;;5.49;50.92;101178.56;4936445;29;20272;-88
2024/01/30 08:38:41;;;;;;;10.63;4.30;;;;;;;5.53;51.97;101180.31;4919727;29;20532;-88
2024/01/30 08:41:07;;;;;;;13.27;4.87;;;;;;;5.22;51.79;101188.06;4936200;29;20197;-88
2024/01/30 08:43:33;;;;;;;25.00;12.07;;;;;;;5.38;51.66;101190.69;4919591;29;20625;-87
2024/01/30 08:46:02;;;;;;;79.57;28.10;;;;;;;5.60;51.28;101186.38;4936295;29;20201;-87
2024/01/30 08:48:27;;;;;;;14.40;6.30;;;;;;;5.69;50.63;101185.50;4919766;29;20270;-87
2024/01/30 08:50:53;;;;;;;10.87;4.57;;;;;;;5.66;50.59;101180.31;4936171;29;20715;-87
2024/01/30 08:53:19;;;;;;;11.20;5.07;;;;;;;5.67;49.92;101177.69;4936524;29;20501;-88
2024/01/30 08:55:44;;;;;;;10.10;4.43;;;;;;;5.69;50.31;101164.69;4950614;28;20631;-87
2024/01/30 08:58:10;;;;;;;12.10;5.17;;;;;;;5.69;50.02;101162.06;4936494;29;20315;-87
2024/01/30 09:00:36;;;;;;;10.10;3.73;;;;;;;5.57;50.13;101176.84;4936176;29;20587;-87
2024/01/30 09:03:01;;;;;;;6.10;3.50;;;;;;;5.48;50.24;101168.16;4922374;29;20219;-87
2024/01/30 09:05:27;;;;;;;10.77;3.33;;;;;;;5.29;50.61;101182.88;4900457;29;20191;-88
2024/01/30 09:07:52;;;;;;;10.97;5.23;;;;;;;5.41;50.77;101167.28;4935633;29;20601;-87
2024/01/30 09:10:18;;;;;;;6.67;3.67;;;;;;;5.35;50.63;101163.81;4919557;29;20661;-88
2024/01/30 09:12:43;;;;;;;6.67;3.93;;;;;;;5.28;51.06;101154.28;4936169;29;20173;-88
2024/01/30 09:15:09;;;;;;;6.33;3.77;;;;;;;5.35;51.14;101149.09;4935988;29;20296;-87
2024/01/30 09:17:34;;;;;;;8.90;3.60;;;;;;;5.49;50.43;101152.56;4935939;29;20196;-88
2024/01/30 09:20:00;;;;;;;7.60;3.47;;;;;;;5.57;50.30;101135.22;4935680;29;20191;-87
2024/01/30 09:22:25;;;;;;;6.90;3.13;;;;;;;5.46;50.29;101142.16;4935944;29;20641;-88
2024/01/30 09:24:51;;;;;;;11.97;3.67;;;;;;;5.21;50.14;101150.81;4935899;29;20179;-87
2024/01/30 09:27:16;;;;;;;7.33;3.17;;;;;;;5.49;49.90;101139.56;4919185;29;20176;-88
2024/01/30 09:29:42;;;;;;;8.63;3.53;;;;;;;5.59;49.64;101133.47;4936090;29;20647;-87
2024/01/30 09:32:08;;;;;;;8.87;3.30;;;;;;;5.63;48.98;101143.88;4935799;29;20192;-88
2024/01/30 09:34:34;;;;;;;7.13;3.20;;;;;;;5.54;49.61;101135.22;4918890;29;20590;-88
2024/01/30 09:37:00;;;;;;;6.30;2.97;;;;;;;5.68;49.54;101131.75;4919059;29;20646;-87
2024/01/30 09:39:25;;;;;;;4.87;2.47;;;;;;;5.75;48.72;101133.47;4918948;29;20719;-88
2024/01/30 09:42:18;;;;;;;14.97;5.87;;;;;;;5.84;48.74;101126.53;4919022;29;20184;-87
2024/01/30 09:44:44;;;;;;;9.10;3.70;;;;;;;5.94;48.66;101127.41;4936043;29;20177;-88
2024/01/30 09:47:10;;;;;;;10.63;3.80;;;;;;;6.03;48.24;101120.44;4935462;29;20201;-88
2024/01/30 09:49:38;;;;;;;10.10;3.60;;;;;;;5.98;48.18;101118.69;4935550;29;20271;-88
2024/01/30 09:52:05;;;;;;;7.23;3.33;;;;;;;5.84;48.58;101117.84;4935256;29;20181;-88
2024/01/30 09:54:34;;;;;;;7.40;3.40;;;;;;;5.89;48.89;101111.81;4935632;29;20212;-87
2024/01/30 09:56:59;;;;;;;9.80;5.37;;;;;;;5.83;48.75;101111.78;4935683;29;20271;-88
2024/01/30 09:59:25;;;;;;;17.20;6.10;;;;;;;5.90;48.47;101113.50;4935413;29;20243;-87
2024/01/30 10:01:51;;;;;;;17.87;7.63;;;;;;;5.99;48.11;101112.63;4918601;29;20178;-87
2024/01/30 10:04:17;;;;;;;9.60;4.00;;;;;;;6.10;48.21;101111.75;4918548;29;20574;-87
2024/01/30 10:06:43;;;;;;;9.57;4.50;;;;;;;6.14;48.44;101103.03;4918434;29;20192;-88
2024/01/30 10:09:09;;;;;;;27.80;13.17;;;;;;;6.22;47.51;101105.63;4937799;29;20699;-87
2024/01/30 10:11:35;;;;;;;11.37;6.07;;;;;;;6.22;47.47;101107.34;4939395;29;20666;-87
2024/01/30 10:14:01;;;;;;;6.90;4.40;;;;;;;6.10;47.42;101109.16;4939115;29;20630;-87
2024/01/30 10:16:26;;;;;;;6.80;3.30;;;;;;;6.13;48.30;101103.06;4938895;29;20195;-87
2024/01/30 10:18:52;;;;;;;18.10;6.73;;;;;;;6.12;48.09;101111.72;4921872;29;20208;-87
2024/01/30 10:21:18;;;;;;;11.53;4.43;;;;;;;6.14;47.57;101091.75;4938778;29;20196;-87
2024/01/30 10:23:44;;;;;;;26.87;8.23;;;;;;;6.24;47.70;101096.06;4938850;29;20242;-87
2024/01/30 10:26:10;;;;;;;13.40;5.00;;;;;;;6.24;47.68;101096.06;4938877;29;20544;-87
2024/01/30 10:28:36;;;;;;;6.60;2.40;;;;;;;6.36;47.14;101097.75;4921989;29;20200;-86
2024/01/30 10:31:03;;;;;;;6.50;2.63;;;;;;;6.32;47.11;101096.03;4938685;29;20185;-87
2024/01/30 10:33:30;;;;;;;6.83;2.43;;;;;;;6.22;46.42;101090.00;4938766;29;20174;-86
2024/01/30 10:36:02;;;;;;;3.93;2.17;;;;;;;6.26;46.00;101091.72;4938684;29;20639;-87
2024/01/30 10:38:31;;;;;;;5.33;2.87;;;;;;;6.25;45.97;101090.00;4938684;29;20215;-86
2024/01/30 10:40:59;;;;;;;5.37;2.60;;;;;;;6.25;45.39;101087.38;4938463;29;20259;-87
2024/01/30 10:43:34;;;;;;;4.23;1.90;;;;;;;6.30;45.69;101087.34;4938529;29;20577;-87
2024/01/30 10:46:19;;;;;;;5.33;2.27;;;;;;;6.31;45.56;101084.75;4938287;29;20319;-87
2024/01/30 10:48:58;;;;;;;3.80;1.27;;;;;;;6.31;45.11;101091.72;4928194;29;20633;-88
2024/01/30 10:51:26;;;;;;;7.80;2.97;;;;;;;6.48;45.62;101087.28;4930103;29;20201;-87
2024/01/30 10:53:53;;;;;;;9.43;2.93;;;;;;;6.65;44.35;101091.53;4927274;29;20189;-87
2024/01/30 10:56:21;;;;;;;6.70;2.60;;;;;;;6.71;45.23;101091.50;4924070;29;20198;-87
2024/01/30 10:58:47;;;;;;;6.00;2.57;;;;;;;6.68;44.76;101088.06;4927429;29;20261;-88
2024/01/30 11:01:13;;;;;;;4.47;2.20;;;;;;;6.61;44.72;101081.13;4925650;29;20273;-88
2024/01/30 11:03:39;;;;;;;7.97;3.37;;;;;;;6.67;45.17;101078.50;4924061;29;20214;-88
2024/01/30 11:06:04;;;;;;;6.20;2.00;;;;;;;6.32;45.87;101077.78;4922849;29;20561;-87
2024/01/30 11:08:32;;;;;;;5.03;2.00;;;;;;;6.38;45.57;101077.78;4928920;29;20194;-87
2024/01/30 11:10:58;;;;;;;4.97;2.53;;;;;;;6.33;44.96;101074.31;4921277;29;20178;-88
2024/01/30 11:13:31;;;;;;;21.33;7.80;;;;;;;6.37;45.16;101073.47;4920512;29;20194;-88
2024/01/30 11:16:04;;;;;;;6.63;2.50;;;;;;;6.41;45.34;101069.94;4927280;29;20192;-86
2024/01/30 11:18:30;;;;;;;5.53;2.60;;;;;;;6.06;45.34;101067.47;4928372;29;20181;-87
2024/01/30 11:20:57;;;;;;;13.07;6.87;;;;;;;6.16;45.72;101063.97;4929426;29;20278;-87
2024/01/30 11:23:23;;;;;;;4.87;2.00;;;;;;;6.31;45.60;101069.13;4928726;29;20201;-86
2024/01/30 11:25:48;;;;;;;7.47;3.10;;;;;;;6.02;45.75;101060.56;4929164;29;20260;-86
2024/01/30 11:28:16;;;;;;;4.13;1.93;;;;;;;5.91;45.89;101063.22;4920812;29;20252;-88